Terminal Aerodrome Forecast
Issued by NWS

Home | Current Version | Previous Version | Text Only | Print | Product List | Glossary On
Versions: 1 2 3 4 5 6 7 8 9 10 11 12 13 14 15 16 17
000
FTAK31 PAJN 281100
TAFAKT
TAF
PAKT 281133Z 2812/2912 31010KT P6SM BKN035
      TEMPO 2812/2815 BKN025
     FM281800 33012KT P6SM SCT025 BKN060
     FM290400 33005KT P6SM SCT025 BKN060
     FM290900 30005KT P6SM FEW040 SCT060
      AMD LTD TO CLD VIS AND WIND 2812/2815=

USA.gov is the U.S. government's official web portal to all federal, state and local government web resources and services.